Weather at Big Spring Mc Mahon-Wrinkle Airport

Public forecast

Using degrees Fahrenheit for public forecast. Weather courtesy of forecast.io.

Current aviation weather report (METAR) for Big Spring Mc Mahon-Wrinkle Airport

Report is more than 6 hours old.

2022/11/14 15:15 (retrieved 2 years ago)

KBPG 141515Z AUTO 32006KT 10SM SCT070 BKN100 07/M03 A2995 RMK AO2 T00741028

Closest aviation forecast (TAF) to Big Spring Mc Mahon-Wrinkle Airport

Forecast is more than 12 hours old.

Closest forecast is Midland International Air and Space Port, 38.2 nm (70.8 km) WSW.

2023/02/22 18:22 (retrieved 1 year ago)

TAF KMAF 221720Z 2218/2318 25032G43KT 6SM BLDU SKC FM230200 27014G21KT P6SM SKC FM230800 29008KT P6SM SKC